createdAt,value
2018-07-13T00:00:49.982Z,99.90
2018-07-13T00:03:54.920Z,99.90
2018-07-13T00:07:00.077Z,99.90
2018-07-13T00:13:09.244Z,99.90
2018-07-13T00:16:13.973Z,99.90
2018-07-13T00:19:19.460Z,99.90
2018-07-13T00:22:23.872Z,99.90
2018-07-13T00:25:28.512Z,99.90
2018-07-13T00:28:32.955Z,99.90
2018-07-13T00:31:38.768Z,99.90
2018-07-13T00:34:43.059Z,99.90
2018-07-13T00:37:47.576Z,99.90
2018-07-13T00:40:52.238Z,99.90
2018-07-13T00:43:56.675Z,99.90
2018-07-13T00:47:02.252Z,99.90
2018-07-13T00:50:07.146Z,99.90
2018-07-13T00:53:11.975Z,99.90
2018-07-13T00:56:16.891Z,99.90
2018-07-13T00:59:21.429Z,99.90
2018-07-13T01:02:25.747Z,99.90
2018-07-13T01:05:30.798Z,99.90
2018-07-13T01:08:35.567Z,99.90
2018-07-13T01:11:40.006Z,99.90
2018-07-13T01:14:44.477Z,99.90
2018-07-13T01:17:48.924Z,99.90
2018-07-13T01:20:53.780Z,99.90
2018-07-13T01:23:58.315Z,99.90
2018-07-13T01:27:03.153Z,99.90
2018-07-13T01:30:07.907Z,99.90
2018-07-13T01:33:13.239Z,99.90
2018-07-13T01:36:18.102Z,99.90
2018-07-13T01:39:23.094Z,99.90
2018-07-13T01:45:32.497Z,99.90
2018-07-13T01:48:37.323Z,99.90
2018-07-13T01:51:42.040Z,99.90
2018-07-13T01:54:46.642Z,99.90
2018-07-13T01:57:51.588Z,99.90
2018-07-13T02:00:56.088Z,99.90
2018-07-13T02:04:00.653Z,99.90
2018-07-13T02:07:04.947Z,99.90
2018-07-13T02:10:09.776Z,99.90
2018-07-13T02:13:14.557Z,99.90
2018-07-13T02:16:18.967Z,99.90
2018-07-13T02:19:23.943Z,99.90
2018-07-13T02:22:28.842Z,99.90
2018-07-13T02:25:33.396Z,99.90
2018-07-13T02:28:37.953Z,99.90
2018-07-13T02:31:42.488Z,99.90
2018-07-13T02:34:47.615Z,99.90
2018-07-13T02:37:52.344Z,99.90
2018-07-13T02:40:56.659Z,99.90
2018-07-13T02:44:01.195Z,99.90
2018-07-13T02:47:05.929Z,99.90
2018-07-13T02:50:10.544Z,99.90
2018-07-13T02:53:14.888Z,99.90
2018-07-13T02:56:19.378Z,99.90
2018-07-13T02:59:23.833Z,99.90
2018-07-13T03:02:28.505Z,99.90
2018-07-13T03:05:32.828Z,99.90
2018-07-13T03:08:37.392Z,99.90
2018-07-13T03:11:42.176Z,99.90
2018-07-13T03:14:46.521Z,99.90
2018-07-13T03:17:55.208Z,99.90
2018-07-13T03:20:59.573Z,99.90
2018-07-13T03:24:04.057Z,99.90
2018-07-13T03:27:08.615Z,99.90
2018-07-13T03:30:13.071Z,99.90
2018-07-13T03:33:17.541Z,99.90
2018-07-13T03:36:21.894Z,99.90
2018-07-13T03:39:26.204Z,99.90
2018-07-13T03:42:30.696Z,99.90
2018-07-13T03:45:35.158Z,99.90
2018-07-13T03:48:39.759Z,99.90
2018-07-13T03:51:44.075Z,99.90
2018-07-13T03:54:48.416Z,99.90
2018-07-13T03:57:52.763Z,99.90
2018-07-13T04:00:57.142Z,99.90
2018-07-13T04:04:01.569Z,99.90
2018-07-13T04:07:06.346Z,99.90
2018-07-13T04:10:11.017Z,99.90
2018-07-13T04:13:15.764Z,99.90
2018-07-13T04:16:20.387Z,99.90
2018-07-13T04:19:25.208Z,99.90
2018-07-13T04:22:30.224Z,99.90
2018-07-13T04:25:35.504Z,99.90
2018-07-13T04:28:40.127Z,99.90
2018-07-13T04:31:45.955Z,99.90
2018-07-13T04:34:51.535Z,99.90
2018-07-13T04:37:56.342Z,99.90
2018-07-13T04:41:01.078Z,99.90
2018-07-13T04:44:06.352Z,99.90
2018-07-13T04:47:11.357Z,99.90
2018-07-13T04:50:16.054Z,99.90
2018-07-13T04:53:20.843Z,99.90
2018-07-13T04:56:26.166Z,99.90
2018-07-13T04:59:30.532Z,99.90
2018-07-13T05:02:35.669Z,99.90
2018-07-13T05:05:40.295Z,99.90
2018-07-13T05:08:44.893Z,99.90
2018-07-13T05:11:49.755Z,99.90
2018-07-13T05:14:54.848Z,99.90
2018-07-13T05:18:00.023Z,99.90
2018-07-13T05:21:04.688Z,99.90
2018-07-13T05:24:09.510Z,99.90
2018-07-13T05:27:14.519Z,99.90
2018-07-13T05:30:19.028Z,99.90
2018-07-13T05:33:24.887Z,99.90
2018-07-13T05:36:29.483Z,99.90
2018-07-13T05:39:33.840Z,99.90
2018-07-13T05:42:38.452Z,99.90
2018-07-13T05:45:43.049Z,99.90
2018-07-13T05:48:47.898Z,99.90
2018-07-13T05:51:52.721Z,99.90
2018-07-13T05:54:58.375Z,99.90
2018-07-13T05:58:02.717Z,99.90
2018-07-13T06:01:07.134Z,99.90
2018-07-13T06:04:12.130Z,99.90
2018-07-13T06:07:17.205Z,99.90
2018-07-13T06:10:22.477Z,99.90
2018-07-13T06:13:26.889Z,99.90
2018-07-13T06:16:31.237Z,99.90
2018-07-13T06:19:35.755Z,99.90
2018-07-13T06:22:40.495Z,99.90
2018-07-13T06:25:44.777Z,99.90
2018-07-13T06:28:49.486Z,99.90
2018-07-13T06:31:53.985Z,99.90
2018-07-13T06:34:59.368Z,99.90
2018-07-13T06:38:03.767Z,99.90
2018-07-13T06:41:08.189Z,99.90
2018-07-13T06:44:12.692Z,99.90
2018-07-13T06:47:17.535Z,99.90
2018-07-13T06:50:22.173Z,99.90
2018-07-13T06:53:26.579Z,99.90
2018-07-13T06:56:30.865Z,99.90
2018-07-13T06:59:35.224Z,99.90
2018-07-13T07:02:42.534Z,99.90
2018-07-13T07:06:06.850Z,99.90
2018-07-13T07:09:11.503Z,99.90
2018-07-13T07:13:29.583Z,99.90
2018-07-13T07:16:34.151Z,99.90
2018-07-13T07:19:38.642Z,99.90
2018-07-13T07:22:43.073Z,99.90
2018-07-13T07:25:47.496Z,99.90
2018-07-13T07:28:52.174Z,99.50
2018-07-13T07:31:56.655Z,98.80
2018-07-13T07:35:01.428Z,98.10
2018-07-13T07:38:05.864Z,98.10
2018-07-13T07:41:11.182Z,98.30
2018-07-13T07:44:15.626Z,99.00
2018-07-13T07:47:20.147Z,99.40
2018-07-13T07:50:24.945Z,98.40
2018-07-13T07:53:29.433Z,98.00
2018-07-13T07:56:34.057Z,97.60
2018-07-13T07:59:38.879Z,98.10
2018-07-13T08:02:46.296Z,97.80
2018-07-13T08:05:50.831Z,97.20
2018-07-13T08:08:55.708Z,97.20
2018-07-13T08:12:00.458Z,97.10
2018-07-13T08:15:05.530Z,96.00
2018-07-13T08:18:10.120Z,96.00
2018-07-13T08:21:14.889Z,95.90
2018-07-13T08:24:22.466Z,95.80
2018-07-13T08:28:02.044Z,95.40
2018-07-13T08:31:06.932Z,94.90
2018-07-13T08:34:11.475Z,94.60
2018-07-13T08:37:16.092Z,93.80
2018-07-13T08:40:22.868Z,93.90
2018-07-13T08:43:28.022Z,93.80
2018-07-13T08:46:32.579Z,93.50
2018-07-13T08:49:37.156Z,93.50
2018-07-13T08:52:42.397Z,92.80
2018-07-13T08:55:47.013Z,92.90
2018-07-13T08:58:51.992Z,92.70
2018-07-13T09:01:56.673Z,92.40
2018-07-13T09:05:01.959Z,90.60
2018-07-13T09:08:06.849Z,91.70
2018-07-13T09:11:11.908Z,92.20
2018-07-13T09:14:16.938Z,92.00
2018-07-13T09:17:21.817Z,91.80
2018-07-13T09:20:26.346Z,91.50
2018-07-13T09:23:31.110Z,91.00
2018-07-13T09:26:36.164Z,90.70
2018-07-13T09:29:40.901Z,90.40
2018-07-13T09:32:45.517Z,89.00
2018-07-13T09:35:50.575Z,89.30
2018-07-13T09:38:55.889Z,89.00
2018-07-13T09:42:00.473Z,88.90
2018-07-13T09:48:09.421Z,88.80
2018-07-13T09:51:14.780Z,87.70
2018-07-13T09:54:19.851Z,87.40
2018-07-13T09:57:24.750Z,88.10
2018-07-13T10:00:34.523Z,88.10
2018-07-13T10:03:39.235Z,88.80
2018-07-13T10:06:48.273Z,86.80
2018-07-13T10:09:52.949Z,87.70
2018-07-13T10:12:58.746Z,85.80
2018-07-13T10:16:03.420Z,84.90
2018-07-13T10:19:08.073Z,86.00
2018-07-13T10:22:16.253Z,86.00
2018-07-13T10:25:20.917Z,85.20
2018-07-13T10:28:25.883Z,84.70
2018-07-13T10:31:30.445Z,82.80
2018-07-13T10:34:35.275Z,82.60
2018-07-13T10:37:42.203Z,84.30
2018-07-13T10:40:47.045Z,84.90
2018-07-13T10:43:51.429Z,85.00
2018-07-13T10:46:56.309Z,84.30
2018-07-13T10:50:01.107Z,84.20
2018-07-13T10:53:06.598Z,84.20
2018-07-13T10:56:11.353Z,82.70
2018-07-13T10:59:15.862Z,82.80
2018-07-13T11:02:20.780Z,81.50
2018-07-13T11:05:25.202Z,82.70
2018-07-13T11:08:29.970Z,81.80
2018-07-13T11:11:34.505Z,82.00
2018-07-13T11:14:39.141Z,80.30
2018-07-13T11:17:43.570Z,81.40
2018-07-13T11:20:48.011Z,81.40
2018-07-13T11:23:52.554Z,79.60
2018-07-13T11:26:57.158Z,78.90
2018-07-13T11:30:01.873Z,78.60
2018-07-13T11:36:10.869Z,80.30
2018-07-13T11:39:15.364Z,80.60
2018-07-13T11:42:19.756Z,81.80
2018-07-13T11:45:24.044Z,80.20
2018-07-13T11:48:28.488Z,81.30
2018-07-13T11:51:32.985Z,81.20
2018-07-13T11:54:37.356Z,80.00
2018-07-13T11:57:41.772Z,80.50
2018-07-13T12:00:46.199Z,80.10
2018-07-13T12:03:50.537Z,81.50
2018-07-13T12:06:55.171Z,81.30
2018-07-13T12:09:59.811Z,81.60
2018-07-13T12:13:04.204Z,82.50
2018-07-13T12:16:08.917Z,81.40
2018-07-13T12:19:13.441Z,81.30
2018-07-13T12:22:18.544Z,80.50
2018-07-13T12:25:22.917Z,81.40
2018-07-13T12:28:27.797Z,82.00
2018-07-13T12:31:32.152Z,82.00
2018-07-13T12:34:36.826Z,81.60
2018-07-13T12:37:41.182Z,81.70
2018-07-13T12:40:46.670Z,81.90
2018-07-13T12:43:51.090Z,81.90
2018-07-13T12:49:59.898Z,81.30
2018-07-13T12:53:04.355Z,82.00
2018-07-13T12:56:08.795Z,81.90
2018-07-13T12:59:13.466Z,81.50
2018-07-13T13:02:18.010Z,82.80
2018-07-13T13:05:22.515Z,81.70
2018-07-13T13:08:27.002Z,82.10
2018-07-13T13:11:31.391Z,82.70
2018-07-13T13:14:35.910Z,81.50
2018-07-13T13:17:40.645Z,83.10
2018-07-13T13:20:45.126Z,83.20
2018-07-13T13:23:49.480Z,83.00
2018-07-13T13:26:54.251Z,81.70
2018-07-13T13:29:58.717Z,81.40
2018-07-13T13:33:03.368Z,83.00
2018-07-13T13:36:07.673Z,82.70
2018-07-13T13:39:11.944Z,81.30
2018-07-13T13:42:16.317Z,82.10
2018-07-13T13:45:20.733Z,81.20
2018-07-13T13:48:25.090Z,80.50
2018-07-13T13:51:29.939Z,80.50
2018-07-13T13:54:35.073Z,81.20
2018-07-13T13:57:39.911Z,81.70
2018-07-13T14:00:44.273Z,81.70
2018-07-13T14:03:48.939Z,82.20
2018-07-13T14:06:53.402Z,82.30
2018-07-13T14:09:59.688Z,82.40
2018-07-13T14:13:04.177Z,80.70
2018-07-13T14:16:09.338Z,82.40
2018-07-13T14:19:13.697Z,82.00
2018-07-13T14:22:18.629Z,82.90
2018-07-13T14:25:22.934Z,82.20
2018-07-13T14:28:27.327Z,82.50
2018-07-13T14:34:35.964Z,83.10
2018-07-13T14:37:40.796Z,82.90
2018-07-13T14:40:45.282Z,82.20
2018-07-13T14:43:49.639Z,83.00
2018-07-13T14:46:54.669Z,83.60
2018-07-13T14:49:59.065Z,83.00
2018-07-13T14:53:03.454Z,83.70
2018-07-13T14:56:08.039Z,85.10
2018-07-13T14:59:12.313Z,84.80
2018-07-13T15:02:16.658Z,85.80
2018-07-13T15:05:21.191Z,84.60
2018-07-13T15:08:25.573Z,86.20
2018-07-13T15:11:29.945Z,85.60
2018-07-13T15:14:34.331Z,85.70
2018-07-13T15:17:38.993Z,85.30
2018-07-13T15:20:43.353Z,84.50
2018-07-13T15:23:47.968Z,84.90
2018-07-13T15:26:53.327Z,83.90
2018-07-13T15:29:57.639Z,83.30
2018-07-13T15:33:02.198Z,82.40
2018-07-13T15:36:06.553Z,82.10
2018-07-13T15:39:10.916Z,83.20
2018-07-13T15:42:15.295Z,82.00
2018-07-13T15:45:19.738Z,81.10
2018-07-13T15:48:24.259Z,81.20
2018-07-13T15:51:29.121Z,81.50
2018-07-13T15:54:34.359Z,81.60
2018-07-13T15:57:39.070Z,81.70
2018-07-13T16:00:43.478Z,82.80
2018-07-13T16:03:47.767Z,83.10
2018-07-13T16:06:52.132Z,82.60
2018-07-13T16:09:56.456Z,82.00
2018-07-13T16:13:00.890Z,82.30
2018-07-13T16:16:05.230Z,81.30
2018-07-13T16:19:09.557Z,81.40
2018-07-13T16:22:13.993Z,82.20
2018-07-13T16:25:18.305Z,82.00
2018-07-13T16:28:22.733Z,81.30
2018-07-13T16:31:27.589Z,80.80
2018-07-13T16:34:31.965Z,80.70
2018-07-13T16:37:36.336Z,81.90
2018-07-13T16:40:40.896Z,82.10
2018-07-13T16:43:45.473Z,82.40
2018-07-13T16:46:49.926Z,82.20
2018-07-13T16:49:54.359Z,81.50
2018-07-13T16:52:58.720Z,80.80
2018-07-13T16:56:03.211Z,81.40
2018-07-13T16:59:07.724Z,81.70
2018-07-13T17:02:12.153Z,81.40
2018-07-13T17:05:16.609Z,82.70
2018-07-13T17:08:20.961Z,82.90
2018-07-13T17:11:25.306Z,82.40
2018-07-13T17:14:29.856Z,82.40
2018-07-13T17:17:34.198Z,82.50
2018-07-13T17:20:38.600Z,83.60
2018-07-13T17:23:42.973Z,83.60
2018-07-13T17:26:47.398Z,84.80
2018-07-13T17:29:52.902Z,88.00
2018-07-13T17:32:58.556Z,90.50
2018-07-13T17:36:03.777Z,91.70
2018-07-13T17:39:08.276Z,92.30
2018-07-13T17:42:13.674Z,92.70
2018-07-13T17:45:18.674Z,93.00
2018-07-13T17:48:23.518Z,93.40
2018-07-13T17:51:28.152Z,93.40
2018-07-13T17:54:33.361Z,93.80
2018-07-13T17:57:37.923Z,94.30
2018-07-13T18:00:42.450Z,94.40
2018-07-13T18:03:48.120Z,94.60
2018-07-13T18:06:53.122Z,94.50
2018-07-13T18:09:57.728Z,94.60
2018-07-13T18:13:02.344Z,94.70
2018-07-13T18:16:07.072Z,94.70
2018-07-13T18:19:11.499Z,94.70
2018-07-13T18:22:15.881Z,95.00
2018-07-13T18:25:20.310Z,95.00
2018-07-13T18:28:24.753Z,95.20
2018-07-13T18:31:29.169Z,95.30
2018-07-13T18:34:33.878Z,95.80
2018-07-13T18:37:38.213Z,96.10
2018-07-13T18:40:42.625Z,96.10
2018-07-13T18:43:47.123Z,96.30
2018-07-13T18:46:51.575Z,96.70
2018-07-13T18:49:55.993Z,96.90
2018-07-13T18:53:00.381Z,97.20
2018-07-13T18:56:04.961Z,97.50
2018-07-13T18:59:09.352Z,97.70
2018-07-13T19:02:13.672Z,97.90
2018-07-13T19:05:18.017Z,98.20
2018-07-13T19:08:22.413Z,98.50
2018-07-13T19:11:26.981Z,98.60
2018-07-13T19:14:31.286Z,98.80
2018-07-13T19:17:35.661Z,98.80
2018-07-13T19:20:40.029Z,99.00
2018-07-13T19:23:44.384Z,99.30
2018-07-13T19:26:48.996Z,99.40
2018-07-13T19:29:53.339Z,99.90
2018-07-13T19:32:57.702Z,99.90
2018-07-13T19:36:02.120Z,99.90
2018-07-13T19:39:07.507Z,99.90
2018-07-13T19:42:12.026Z,99.90
2018-07-13T19:45:16.400Z,99.90
2018-07-13T19:48:20.745Z,99.90
2018-07-13T19:51:25.183Z,99.90
2018-07-13T19:54:29.589Z,99.90
2018-07-13T19:57:34.002Z,99.90
2018-07-13T20:00:38.397Z,99.90
2018-07-13T20:03:42.757Z,99.90
2018-07-13T20:06:47.048Z,99.90
2018-07-13T20:09:51.456Z,99.90
2018-07-13T20:12:55.767Z,99.90
2018-07-13T20:16:00.164Z,99.90
2018-07-13T20:19:04.565Z,99.90
2018-07-13T20:22:08.981Z,99.80
2018-07-13T20:25:13.363Z,99.80
2018-07-13T20:28:17.743Z,99.80
2018-07-13T20:31:22.165Z,99.80
2018-07-13T20:34:26.574Z,99.90
2018-07-13T20:37:31.026Z,99.80
2018-07-13T20:40:35.504Z,99.80
2018-07-13T20:43:40.031Z,99.80
2018-07-13T20:46:44.489Z,99.60
2018-07-13T20:49:48.815Z,99.50
2018-07-13T20:52:53.157Z,99.50
2018-07-13T20:55:57.477Z,99.60
2018-07-13T20:59:01.836Z,99.90
2018-07-13T21:02:06.363Z,99.60
2018-07-13T21:05:10.815Z,99.40
2018-07-13T21:08:15.170Z,99.30
2018-07-13T21:11:19.621Z,99.10
2018-07-13T21:14:24.043Z,99.20
2018-07-13T21:17:28.460Z,99.40
2018-07-13T21:20:32.806Z,99.40
2018-07-13T21:23:37.234Z,99.20
2018-07-13T21:26:41.832Z,99.30
2018-07-13T21:29:46.171Z,99.40
2018-07-13T21:32:50.493Z,99.30
2018-07-13T21:35:56.842Z,99.20
2018-07-13T21:39:01.466Z,99.20
2018-07-13T21:42:05.864Z,99.40
2018-07-13T21:45:10.348Z,99.50
2018-07-13T21:48:14.878Z,99.90
2018-07-13T21:51:19.324Z,99.90
2018-07-13T21:54:23.819Z,99.90
2018-07-13T21:57:28.169Z,99.70
2018-07-13T22:00:33.009Z,99.90
2018-07-13T22:03:37.500Z,99.70
2018-07-13T22:06:41.844Z,99.90
2018-07-13T22:09:46.111Z,99.90
2018-07-13T22:12:50.624Z,99.90
2018-07-13T22:15:55.175Z,99.90
2018-07-13T22:18:59.500Z,99.90
2018-07-13T22:22:03.854Z,99.90
2018-07-13T22:25:08.229Z,99.90
2018-07-13T22:28:12.535Z,99.90
2018-07-13T22:31:17.273Z,99.90
2018-07-13T22:34:21.842Z,99.90
2018-07-13T22:37:26.752Z,99.90
2018-07-13T22:40:31.095Z,99.70
2018-07-13T22:43:35.553Z,99.60
2018-07-13T22:46:40.115Z,99.30
2018-07-13T22:49:44.453Z,99.40
2018-07-13T22:52:48.787Z,99.70
2018-07-13T22:55:53.169Z,99.40
2018-07-13T22:58:57.480Z,99.40
2018-07-13T23:02:01.973Z,99.30
2018-07-13T23:05:06.569Z,99.30
2018-07-13T23:08:11.027Z,99.30
2018-07-13T23:11:15.319Z,99.30
2018-07-13T23:14:19.939Z,99.30
2018-07-13T23:17:24.343Z,99.40
2018-07-13T23:20:28.628Z,99.80
2018-07-13T23:23:32.903Z,99.90
2018-07-13T23:26:37.321Z,99.80
2018-07-13T23:29:41.651Z,99.80
2018-07-13T23:32:46.048Z,99.70
2018-07-13T23:35:50.349Z,99.50
2018-07-13T23:38:54.824Z,99.40
2018-07-13T23:41:59.074Z,99.30
2018-07-13T23:45:03.415Z,99.20
2018-07-13T23:48:07.885Z,99.30
2018-07-13T23:51:12.257Z,99.20
2018-07-13T23:54:16.675Z,99.30
2018-07-13T23:57:21.015Z,99.20
